sensor_id;sensor_type;location;lat;lon;timestamp;temperature;humidity
14170;DHT22;7164;50.524;8.676;2022-08-11T00:00:36;19.60;72.00
14170;DHT22;7164;50.524;8.676;2022-08-11T00:03:09;19.70;71.40
14170;DHT22;7164;50.524;8.676;2022-08-11T00:05:47;19.60;71.80
14170;DHT22;7164;50.524;8.676;2022-08-11T00:08:30;19.70;72.00
14170;DHT22;7164;50.524;8.676;2022-08-11T00:11:05;19.60;72.40
14170;DHT22;7164;50.524;8.676;2022-08-11T00:13:38;19.60;72.30
14170;DHT22;7164;50.524;8.676;2022-08-11T00:16:23;19.60;71.80
14170;DHT22;7164;50.524;8.676;2022-08-11T00:18:52;19.50;72.60
14170;DHT22;7164;50.524;8.676;2022-08-11T00:21:20;19.40;73.00
14170;DHT22;7164;50.524;8.676;2022-08-11T00:24:01;19.40;72.90
14170;DHT22;7164;50.524;8.676;2022-08-11T00:26:27;19.30;72.80
14170;DHT22;7164;50.524;8.676;2022-08-11T00:28:54;19.30;73.50
14170;DHT22;7164;50.524;8.676;2022-08-11T00:31:27;19.20;73.60
14170;DHT22;7164;50.524;8.676;2022-08-11T00:33:54;19.10;74.10
14170;DHT22;7164;50.524;8.676;2022-08-11T00:36:27;19.10;74.10
14170;DHT22;7164;50.524;8.676;2022-08-11T00:38:54;18.90;74.20
14170;DHT22;7164;50.524;8.676;2022-08-11T00:44:24;18.70;74.90
14170;DHT22;7164;50.524;8.676;2022-08-11T01:07:06;18.40;76.50
14170;DHT22;7164;50.524;8.676;2022-08-11T01:10:02;18.30;76.60
14170;DHT22;7164;50.524;8.676;2022-08-11T01:46:22;17.60;79.70
14170;DHT22;7164;50.524;8.676;2022-08-11T01:49:00;17.50;80.30
14170;DHT22;7164;50.524;8.676;2022-08-11T01:54:06;17.70;81.30
14170;DHT22;7164;50.524;8.676;2022-08-11T02:07:35;17.50;81.90
14170;DHT22;7164;50.524;8.676;2022-08-11T02:10:14;17.40;82.20
14170;DHT22;7164;50.524;8.676;2022-08-11T02:18:53;17.30;83.10
14170;DHT22;7164;50.524;8.676;2022-08-11T02:21:45;17.20;83.40
14170;DHT22;7164;50.524;8.676;2022-08-11T02:24:34;17.20;84.90
14170;DHT22;7164;50.524;8.676;2022-08-11T02:27:22;17.20;83.60
14170;DHT22;7164;50.524;8.676;2022-08-11T02:29:58;17.10;85.20
14170;DHT22;7164;50.524;8.676;2022-08-11T02:32:40;17.00;85.20
14170;DHT22;7164;50.524;8.676;2022-08-11T02:35:51;16.90;86.10
14170;DHT22;7164;50.524;8.676;2022-08-11T02:38:27;17.00;86.30
14170;DHT22;7164;50.524;8.676;2022-08-11T02:41:08;16.90;87.20
14170;DHT22;7164;50.524;8.676;2022-08-11T02:47:14;17.10;87.10
14170;DHT22;7164;50.524;8.676;2022-08-11T02:53:00;16.80;88.20
14170;DHT22;7164;50.524;8.676;2022-08-11T02:55:56;16.80;88.40
14170;DHT22;7164;50.524;8.676;2022-08-11T03:01:05;16.80;89.00
14170;DHT22;7164;50.524;8.676;2022-08-11T03:03:52;16.90;89.30
14170;DHT22;7164;50.524;8.676;2022-08-11T03:06:33;16.90;90.00
14170;DHT22;7164;50.524;8.676;2022-08-11T03:12:01;16.90;90.10
14170;DHT22;7164;50.524;8.676;2022-08-11T03:15:06;16.80;90.10
14170;DHT22;7164;50.524;8.676;2022-08-11T03:18:21;16.80;90.40
14170;DHT22;7164;50.524;8.676;2022-08-11T03:21:25;16.70;90.70
14170;DHT22;7164;50.524;8.676;2022-08-11T03:24:13;16.70;90.70
14170;DHT22;7164;50.524;8.676;2022-08-11T03:27:09;16.60;91.40
14170;DHT22;7164;50.524;8.676;2022-08-11T03:30:14;16.50;91.90
14170;DHT22;7164;50.524;8.676;2022-08-11T03:35:08;16.50;92.40
14170;DHT22;7164;50.524;8.676;2022-08-11T03:37:44;16.40;92.80
14170;DHT22;7164;50.524;8.676;2022-08-11T03:40:24;16.40;93.50
14170;DHT22;7164;50.524;8.676;2022-08-11T03:46:11;16.30;93.80
14170;DHT22;7164;50.524;8.676;2022-08-11T03:51:47;16.30;94.10
14170;DHT22;7164;50.524;8.676;2022-08-11T03:57:26;16.20;94.30
14170;DHT22;7164;50.524;8.676;2022-08-11T04:11:45;16.10;96.50
14170;DHT22;7164;50.524;8.676;2022-08-11T04:17:54;16.20;96.70
14170;DHT22;7164;50.524;8.676;2022-08-11T04:29:17;16.20;97.90
14170;DHT22;7164;50.524;8.676;2022-08-11T04:34:39;16.50;97.80
14170;DHT22;7164;50.524;8.676;2022-08-11T04:40:08;16.80;97.30
14170;DHT22;7164;50.524;8.676;2022-08-11T05:04:06;18.90;92.90
14170;DHT22;7164;50.524;8.676;2022-08-11T05:09:51;19.90;91.20
14170;DHT22;7164;50.524;8.676;2022-08-11T05:12:51;20.20;90.70
14170;DHT22;7164;50.524;8.676;2022-08-11T05:15:27;20.70;89.60
14170;DHT22;7164;50.524;8.676;2022-08-11T05:18:16;21.10;88.30
14170;DHT22;7164;50.524;8.676;2022-08-11T05:21:08;21.60;86.70
14170;DHT22;7164;50.524;8.676;2022-08-11T05:24:02;21.90;85.40
14170;DHT22;7164;50.524;8.676;2022-08-11T05:26:48;22.20;83.70
14170;DHT22;7164;50.524;8.676;2022-08-11T05:29:48;22.60;83.20
14170;DHT22;7164;50.524;8.676;2022-08-11T05:32:38;23.20;80.70
14170;DHT22;7164;50.524;8.676;2022-08-11T05:35:30;23.70;78.70
14170;DHT22;7164;50.524;8.676;2022-08-11T05:37:57;24.00;78.40
14170;DHT22;7164;50.524;8.676;2022-08-11T05:40:49;24.40;78.00
14170;DHT22;7164;50.524;8.676;2022-08-11T05:43:40;24.80;77.10
14170;DHT22;7164;50.524;8.676;2022-08-11T05:46:26;25.30;75.40
14170;DHT22;7164;50.524;8.676;2022-08-11T05:49:12;25.70;74.70
14170;DHT22;7164;50.524;8.676;2022-08-11T05:51:58;26.00;73.00
14170;DHT22;7164;50.524;8.676;2022-08-11T05:54:50;26.30;72.60
14170;DHT22;7164;50.524;8.676;2022-08-11T05:57:36;26.70;70.70
14170;DHT22;7164;50.524;8.676;2022-08-11T06:00:05;27.10;69.50
14170;DHT22;7164;50.524;8.676;2022-08-11T06:02:48;27.50;69.40
14170;DHT22;7164;50.524;8.676;2022-08-11T06:05:15;28.00;67.80
14170;DHT22;7164;50.524;8.676;2022-08-11T06:07:41;28.30;66.40
14170;DHT22;7164;50.524;8.676;2022-08-11T06:10:08;28.80;64.10
14170;DHT22;7164;50.524;8.676;2022-08-11T06:12:35;29.10;63.90
14170;DHT22;7164;50.524;8.676;2022-08-11T06:15:07;29.50;61.10
14170;DHT22;7164;50.524;8.676;2022-08-11T06:17:42;29.50;61.90
14170;DHT22;7164;50.524;8.676;2022-08-11T06:20:09;29.80;61.10
14170;DHT22;7164;50.524;8.676;2022-08-11T06:22:37;30.20;61.00
14170;DHT22;7164;50.524;8.676;2022-08-11T06:25:05;30.80;59.50
14170;DHT22;7164;50.524;8.676;2022-08-11T06:27:35;31.20;58.50
14170;DHT22;7164;50.524;8.676;2022-08-11T06:30:04;31.70;57.20
14170;DHT22;7164;50.524;8.676;2022-08-11T06:32:40;32.10;57.80
14170;DHT22;7164;50.524;8.676;2022-08-11T06:35:32;32.60;56.30
14170;DHT22;7164;50.524;8.676;2022-08-11T06:38:14;33.00;55.00
14170;DHT22;7164;50.524;8.676;2022-08-11T06:41:01;33.20;54.50
14170;DHT22;7164;50.524;8.676;2022-08-11T06:43:58;33.50;53.40
14170;DHT22;7164;50.524;8.676;2022-08-11T06:46:34;33.80;52.50
14170;DHT22;7164;50.524;8.676;2022-08-11T06:49:05;33.80;54.10
14170;DHT22;7164;50.524;8.676;2022-08-11T06:51:33;33.90;52.70
14170;DHT22;7164;50.524;8.676;2022-08-11T06:54:04;34.20;52.00
14170;DHT22;7164;50.524;8.676;2022-08-11T06:56:35;34.70;51.60
14170;DHT22;7164;50.524;8.676;2022-08-11T06:59:21;35.10;50.50
14170;DHT22;7164;50.524;8.676;2022-08-11T07:02:23;35.50;51.40
14170;DHT22;7164;50.524;8.676;2022-08-11T07:05:04;36.10;49.90
14170;DHT22;7164;50.524;8.676;2022-08-11T07:13:26;37.10;47.30
14170;DHT22;7164;50.524;8.676;2022-08-11T07:16:28;37.30;47.50
14170;DHT22;7164;50.524;8.676;2022-08-11T07:19:05;37.90;46.40
14170;DHT22;7164;50.524;8.676;2022-08-11T07:21:50;38.10;46.40
14170;DHT22;7164;50.524;8.676;2022-08-11T07:24:41;37.80;45.60
14170;DHT22;7164;50.524;8.676;2022-08-11T07:28:10;37.50;47.30
14170;DHT22;7164;50.524;8.676;2022-08-11T07:30:57;38.00;46.50
14170;DHT22;7164;50.524;8.676;2022-08-11T07:33:30;38.50;45.60
14170;DHT22;7164;50.524;8.676;2022-08-11T07:35:59;38.50;47.10
14170;DHT22;7164;50.524;8.676;2022-08-11T07:38:38;39.30;44.50
14170;DHT22;7164;50.524;8.676;2022-08-11T07:41:12;40.00;45.10
14170;DHT22;7164;50.524;8.676;2022-08-11T07:43:43;40.00;43.30
14170;DHT22;7164;50.524;8.676;2022-08-11T07:46:10;37.50;44.90
14170;DHT22;7164;50.524;8.676;2022-08-11T07:48:54;38.30;45.50
14170;DHT22;7164;50.524;8.676;2022-08-11T07:51:41;39.20;44.20
14170;DHT22;7164;50.524;8.676;2022-08-11T07:54:26;40.30;43.60
14170;DHT22;7164;50.524;8.676;2022-08-11T07:56:52;41.00;42.80
14170;DHT22;7164;50.524;8.676;2022-08-11T07:59:18;41.10;42.60
14170;DHT22;7164;50.524;8.676;2022-08-11T08:02:03;41.70;42.10
14170;DHT22;7164;50.524;8.676;2022-08-11T08:04:48;41.90;41.20
14170;DHT22;7164;50.524;8.676;2022-08-11T08:07:33;40.10;42.00
14170;DHT22;7164;50.524;8.676;2022-08-11T08:10:18;40.60;42.60
14170;DHT22;7164;50.524;8.676;2022-08-11T08:13:04;41.20;42.60
14170;DHT22;7164;50.524;8.676;2022-08-11T08:15:50;41.20;41.60
14170;DHT22;7164;50.524;8.676;2022-08-11T08:18:35;41.30;42.10
14170;DHT22;7164;50.524;8.676;2022-08-11T08:21:03;40.70;42.40
14170;DHT22;7164;50.524;8.676;2022-08-11T08:23:46;41.70;42.00
14170;DHT22;7164;50.524;8.676;2022-08-11T08:26:14;42.70;40.00
14170;DHT22;7164;50.524;8.676;2022-08-11T08:29:05;41.20;40.80
14170;DHT22;7164;50.524;8.676;2022-08-11T08:31:51;41.90;41.50
14170;DHT22;7164;50.524;8.676;2022-08-11T08:34:18;42.30;40.80
14170;DHT22;7164;50.524;8.676;2022-08-11T08:36:49;42.60;40.20
14170;DHT22;7164;50.524;8.676;2022-08-11T08:39:19;42.80;40.50
14170;DHT22;7164;50.524;8.676;2022-08-11T08:41:49;43.80;40.10
14170;DHT22;7164;50.524;8.676;2022-08-11T08:44:17;44.70;39.80
14170;DHT22;7164;50.524;8.676;2022-08-11T08:46:47;45.50;38.00
14170;DHT22;7164;50.524;8.676;2022-08-11T08:49:17;45.80;38.30
14170;DHT22;7164;50.524;8.676;2022-08-11T08:51:44;45.40;37.70
14170;DHT22;7164;50.524;8.676;2022-08-11T08:54:16;45.40;37.50
14170;DHT22;7164;50.524;8.676;2022-08-11T08:56:45;46.10;37.20
14170;DHT22;7164;50.524;8.676;2022-08-11T08:59:14;46.90;37.20
14170;DHT22;7164;50.524;8.676;2022-08-11T09:01:54;46.20;36.10
14170;DHT22;7164;50.524;8.676;2022-08-11T09:04:23;46.50;36.90
14170;DHT22;7164;50.524;8.676;2022-08-11T09:06:50;46.10;36.70
14170;DHT22;7164;50.524;8.676;2022-08-11T09:09:16;45.00;36.80
14170;DHT22;7164;50.524;8.676;2022-08-11T09:11:43;44.50;36.70
14170;DHT22;7164;50.524;8.676;2022-08-11T09:14:27;44.50;37.50
14170;DHT22;7164;50.524;8.676;2022-08-11T09:17:20;44.50;37.80
14170;DHT22;7164;50.524;8.676;2022-08-11T09:19:47;45.30;37.20
14170;DHT22;7164;50.524;8.676;2022-08-11T09:22:18;45.80;36.50
14170;DHT22;7164;50.524;8.676;2022-08-11T09:25:04;44.00;36.60
14170;DHT22;7164;50.524;8.676;2022-08-11T09:27:50;41.30;38.50
14170;DHT22;7164;50.524;8.676;2022-08-11T09:30:18;41.90;39.20
14170;DHT22;7164;50.524;8.676;2022-08-11T09:32:44;41.90;39.10
14170;DHT22;7164;50.524;8.676;2022-08-11T09:35:11;43.50;38.10
14170;DHT22;7164;50.524;8.676;2022-08-11T09:37:37;45.10;37.00
14170;DHT22;7164;50.524;8.676;2022-08-11T09:40:24;45.80;36.80
14170;DHT22;7164;50.524;8.676;2022-08-11T09:43:01;45.50;35.90
14170;DHT22;7164;50.524;8.676;2022-08-11T09:45:47;45.30;36.70
14170;DHT22;7164;50.524;8.676;2022-08-11T09:48:21;45.80;36.90
14170;DHT22;7164;50.524;8.676;2022-08-11T09:50:49;46.70;35.50
14170;DHT22;7164;50.524;8.676;2022-08-11T09:53:16;47.00;35.90
14170;DHT22;7164;50.524;8.676;2022-08-11T09:55:43;46.70;36.10
14170;DHT22;7164;50.524;8.676;2022-08-11T09:58:13;46.10;34.00
14170;DHT22;7164;50.524;8.676;2022-08-11T10:00:41;44.60;35.00
14170;DHT22;7164;50.524;8.676;2022-08-11T10:03:27;44.60;34.90
14170;DHT22;7164;50.524;8.676;2022-08-11T10:06:03;44.40;34.90
14170;DHT22;7164;50.524;8.676;2022-08-11T10:08:50;44.60;34.50
14170;DHT22;7164;50.524;8.676;2022-08-11T10:11:20;41.50;35.90
14170;DHT22;7164;50.524;8.676;2022-08-11T10:13:49;39.40;36.70
14170;DHT22;7164;50.524;8.676;2022-08-11T10:16:38;38.40;38.90
14170;DHT22;7164;50.524;8.676;2022-08-11T10:19:05;38.80;37.70
14170;DHT22;7164;50.524;8.676;2022-08-11T10:21:39;39.10;37.70
14170;DHT22;7164;50.524;8.676;2022-08-11T10:24:06;38.50;38.20
14170;DHT22;7164;50.524;8.676;2022-08-11T10:26:52;37.50;38.00
14170;DHT22;7164;50.524;8.676;2022-08-11T10:29:27;37.10;39.20
14170;DHT22;7164;50.524;8.676;2022-08-11T10:32:13;36.50;39.10
14170;DHT22;7164;50.524;8.676;2022-08-11T10:35:01;36.70;39.40
14170;DHT22;7164;50.524;8.676;2022-08-11T10:37:27;36.60;38.90
14170;DHT22;7164;50.524;8.676;2022-08-11T10:39:59;36.70;39.20
14170;DHT22;7164;50.524;8.676;2022-08-11T10:42:25;35.40;40.00
14170;DHT22;7164;50.524;8.676;2022-08-11T10:45:10;33.80;41.40
14170;DHT22;7164;50.524;8.676;2022-08-11T10:47:56;32.60;43.00
14170;DHT22;7164;50.524;8.676;2022-08-11T10:50:22;32.10;44.10
14170;DHT22;7164;50.524;8.676;2022-08-11T10:53:08;32.20;43.60
14170;DHT22;7164;50.524;8.676;2022-08-11T10:55:53;32.30;43.60
14170;DHT22;7164;50.524;8.676;2022-08-11T10:58:38;32.30;44.00
14170;DHT22;7164;50.524;8.676;2022-08-11T11:01:20;31.70;44.10
14170;DHT22;7164;50.524;8.676;2022-08-11T11:03:51;31.20;45.00
14170;DHT22;7164;50.524;8.676;2022-08-11T11:06:26;30.70;45.50
14170;DHT22;7164;50.524;8.676;2022-08-11T11:11:27;31.20;45.40
14170;DHT22;7164;50.524;8.676;2022-08-11T11:14:18;31.30;45.20
14170;DHT22;7164;50.524;8.676;2022-08-11T11:17:04;31.20;45.30
14170;DHT22;7164;50.524;8.676;2022-08-11T11:19:53;31.10;45.80
14170;DHT22;7164;50.524;8.676;2022-08-11T11:22:24;31.20;45.70
14170;DHT22;7164;50.524;8.676;2022-08-11T11:36:56;29.70;47.00
14170;DHT22;7164;50.524;8.676;2022-08-11T11:39:24;29.80;47.30
14170;DHT22;7164;50.524;8.676;2022-08-11T11:41:53;29.70;47.20
14170;DHT22;7164;50.524;8.676;2022-08-11T11:44:20;29.80;47.30
14170;DHT22;7164;50.524;8.676;2022-08-11T11:46:47;30.00;47.30
14170;DHT22;7164;50.524;8.676;2022-08-11T11:49:16;30.10;47.20
14170;DHT22;7164;50.524;8.676;2022-08-11T11:51:44;30.10;47.70
14170;DHT22;7164;50.524;8.676;2022-08-11T11:54:16;30.00;47.40
14170;DHT22;7164;50.524;8.676;2022-08-11T11:56:43;30.00;48.00
14170;DHT22;7164;50.524;8.676;2022-08-11T11:59:10;30.00;47.30
14170;DHT22;7164;50.524;8.676;2022-08-11T12:01:55;29.90;47.80
14170;DHT22;7164;50.524;8.676;2022-08-11T12:04:22;29.90;47.60
14170;DHT22;7164;50.524;8.676;2022-08-11T12:06:48;29.90;47.70
14170;DHT22;7164;50.524;8.676;2022-08-11T12:09:15;29.70;47.90
14170;DHT22;7164;50.524;8.676;2022-08-11T12:11:43;29.60;48.80
14170;DHT22;7164;50.524;8.676;2022-08-11T12:14:27;29.60;48.10
14170;DHT22;7164;50.524;8.676;2022-08-11T12:16:55;29.80;48.10
14170;DHT22;7164;50.524;8.676;2022-08-11T12:19:26;29.80;48.80
14170;DHT22;7164;50.524;8.676;2022-08-11T12:21:55;29.60;48.40
14170;DHT22;7164;50.524;8.676;2022-08-11T12:24:39;29.50;49.30
14170;DHT22;7164;50.524;8.676;2022-08-11T12:27:25;29.60;48.50
14170;DHT22;7164;50.524;8.676;2022-08-11T12:29:58;29.50;48.80
14170;DHT22;7164;50.524;8.676;2022-08-11T12:32:26;29.50;48.90
14170;DHT22;7164;50.524;8.676;2022-08-11T12:34:53;29.60;48.50
14170;DHT22;7164;50.524;8.676;2022-08-11T12:37:26;29.50;48.30
14170;DHT22;7164;50.524;8.676;2022-08-11T12:39:58;29.50;48.50
14170;DHT22;7164;50.524;8.676;2022-08-11T12:42:44;29.70;48.70
14170;DHT22;7164;50.524;8.676;2022-08-11T12:45:29;29.60;48.90
14170;DHT22;7164;50.524;8.676;2022-08-11T12:48:11;29.60;49.50
14170;DHT22;7164;50.524;8.676;2022-08-11T12:51:08;29.50;48.80
14170;DHT22;7164;50.524;8.676;2022-08-11T12:54:25;29.60;49.60
14170;DHT22;7164;50.524;8.676;2022-08-11T12:57:08;29.60;49.00
14170;DHT22;7164;50.524;8.676;2022-08-11T12:59:54;29.50;48.70
14170;DHT22;7164;50.524;8.676;2022-08-11T13:02:39;29.70;49.00
14170;DHT22;7164;50.524;8.676;2022-08-11T13:05:24;29.90;49.00
14170;DHT22;7164;50.524;8.676;2022-08-11T13:07:51;29.90;48.90
14170;DHT22;7164;50.524;8.676;2022-08-11T13:10:18;29.80;48.80
14170;DHT22;7164;50.524;8.676;2022-08-11T13:13:06;29.90;49.00
14170;DHT22;7164;50.524;8.676;2022-08-11T13:15:33;29.80;48.60
14170;DHT22;7164;50.524;8.676;2022-08-11T13:18:01;29.80;48.70
14170;DHT22;7164;50.524;8.676;2022-08-11T13:20:27;29.70;48.50
14170;DHT22;7164;50.524;8.676;2022-08-11T13:22:56;29.50;49.00
14170;DHT22;7164;50.524;8.676;2022-08-11T13:25:24;29.50;48.80
14170;DHT22;7164;50.524;8.676;2022-08-11T13:27:54;29.50;48.80
14170;DHT22;7164;50.524;8.676;2022-08-11T13:30:24;29.60;49.00
14170;DHT22;7164;50.524;8.676;2022-08-11T13:33:08;29.70;49.40
14170;DHT22;7164;50.524;8.676;2022-08-11T13:35:35;29.80;48.60
14170;DHT22;7164;50.524;8.676;2022-08-11T13:38:02;29.70;48.60
14170;DHT22;7164;50.524;8.676;2022-08-11T13:40:29;29.70;48.30
14170;DHT22;7164;50.524;8.676;2022-08-11T13:42:55;29.70;48.40
14170;DHT22;7164;50.524;8.676;2022-08-11T13:45:24;29.70;48.30
14170;DHT22;7164;50.524;8.676;2022-08-11T13:47:54;29.70;48.20
14170;DHT22;7164;50.524;8.676;2022-08-11T13:50:20;29.80;48.00
14170;DHT22;7164;50.524;8.676;2022-08-11T13:53:07;29.80;48.90
14170;DHT22;7164;50.524;8.676;2022-08-11T13:55:34;29.80;48.20
14170;DHT22;7164;50.524;8.676;2022-08-11T13:58:00;29.80;47.60
14170;DHT22;7164;50.524;8.676;2022-08-11T14:00:28;29.80;48.10
14170;DHT22;7164;50.524;8.676;2022-08-11T14:02:56;29.80;47.60
14170;DHT22;7164;50.524;8.676;2022-08-11T14:05:28;29.80;47.90
14170;DHT22;7164;50.524;8.676;2022-08-11T14:08:01;29.90;47.90
14170;DHT22;7164;50.524;8.676;2022-08-11T14:10:29;29.90;48.50
14170;DHT22;7164;50.524;8.676;2022-08-11T14:13:08;29.90;47.90
14170;DHT22;7164;50.524;8.676;2022-08-11T14:15:55;29.90;48.30
14170;DHT22;7164;50.524;8.676;2022-08-11T14:18:28;30.00;47.90
14170;DHT22;7164;50.524;8.676;2022-08-11T14:20:56;30.00;48.00
14170;DHT22;7164;50.524;8.676;2022-08-11T14:23:52;30.10;48.20
14170;DHT22;7164;50.524;8.676;2022-08-11T14:26:20;29.90;47.90
14170;DHT22;7164;50.524;8.676;2022-08-11T14:28:59;29.80;48.00
14170;DHT22;7164;50.524;8.676;2022-08-11T14:31:28;29.80;48.30
14170;DHT22;7164;50.524;8.676;2022-08-11T14:33:55;29.80;47.60
14170;DHT22;7164;50.524;8.676;2022-08-11T14:36:24;29.70;47.80
14170;DHT22;7164;50.524;8.676;2022-08-11T14:38:51;29.70;47.90
14170;DHT22;7164;50.524;8.676;2022-08-11T14:41:20;29.70;47.70
14170;DHT22;7164;50.524;8.676;2022-08-11T14:44:06;29.80;48.90
14170;DHT22;7164;50.524;8.676;2022-08-11T14:46:51;29.90;47.90
14170;DHT22;7164;50.524;8.676;2022-08-11T14:49:34;29.80;48.30
14170;DHT22;7164;50.524;8.676;2022-08-11T14:52:02;29.90;48.80
14170;DHT22;7164;50.524;8.676;2022-08-11T14:54:30;29.90;47.70
14170;DHT22;7164;50.524;8.676;2022-08-11T14:57:18;29.80;48.30
14170;DHT22;7164;50.524;8.676;2022-08-11T14:59:46;29.80;48.10
14170;DHT22;7164;50.524;8.676;2022-08-11T15:02:13;29.80;47.70
14170;DHT22;7164;50.524;8.676;2022-08-11T15:05:00;29.80;48.00
14170;DHT22;7164;50.524;8.676;2022-08-11T15:07:27;29.90;48.30
14170;DHT22;7164;50.524;8.676;2022-08-11T15:09:57;29.90;47.10
14170;DHT22;7164;50.524;8.676;2022-08-11T15:12:24;29.90;47.70
14170;DHT22;7164;50.524;8.676;2022-08-11T15:14:50;29.90;47.40
14170;DHT22;7164;50.524;8.676;2022-08-11T15:17:35;30.00;47.50
14170;DHT22;7164;50.524;8.676;2022-08-11T15:20:08;29.80;47.30
14170;DHT22;7164;50.524;8.676;2022-08-11T15:22:54;29.80;47.20
14170;DHT22;7164;50.524;8.676;2022-08-11T15:25:43;29.80;47.10
14170;DHT22;7164;50.524;8.676;2022-08-11T15:28:11;29.80;47.20
14170;DHT22;7164;50.524;8.676;2022-08-11T15:30:58;29.90;47.70
14170;DHT22;7164;50.524;8.676;2022-08-11T15:33:44;30.10;47.60
14170;DHT22;7164;50.524;8.676;2022-08-11T15:36:32;30.10;47.10
14170;DHT22;7164;50.524;8.676;2022-08-11T15:39:40;30.00;47.00
14170;DHT22;7164;50.524;8.676;2022-08-11T15:42:30;30.00;47.00
14170;DHT22;7164;50.524;8.676;2022-08-11T15:45:21;30.00;47.00
14170;DHT22;7164;50.524;8.676;2022-08-11T15:48:09;29.90;47.60
14170;DHT22;7164;50.524;8.676;2022-08-11T15:50:44;29.90;47.20
14170;DHT22;7164;50.524;8.676;2022-08-11T15:53:37;29.90;47.70
14170;DHT22;7164;50.524;8.676;2022-08-11T15:56:04;29.90;47.70
14170;DHT22;7164;50.524;8.676;2022-08-11T15:58:33;29.90;47.10
14170;DHT22;7164;50.524;8.676;2022-08-11T16:01:22;29.90;47.50
14170;DHT22;7164;50.524;8.676;2022-08-11T16:04:10;29.90;47.20
14170;DHT22;7164;50.524;8.676;2022-08-11T16:09:43;29.80;47.40
14170;DHT22;7164;50.524;8.676;2022-08-11T16:12:14;29.80;47.30
14170;DHT22;7164;50.524;8.676;2022-08-11T16:14:47;29.90;47.20
14170;DHT22;7164;50.524;8.676;2022-08-11T16:17:36;29.80;47.10
14170;DHT22;7164;50.524;8.676;2022-08-11T16:20:04;29.70;47.00
14170;DHT22;7164;50.524;8.676;2022-08-11T16:22:33;29.70;47.20
14170;DHT22;7164;50.524;8.676;2022-08-11T16:25:15;29.60;47.40
14170;DHT22;7164;50.524;8.676;2022-08-11T16:27:44;29.60;47.70
14170;DHT22;7164;50.524;8.676;2022-08-11T16:30:11;29.60;47.50
14170;DHT22;7164;50.524;8.676;2022-08-11T16:32:42;29.70;47.50
14170;DHT22;7164;50.524;8.676;2022-08-11T16:35:12;29.60;46.90
14170;DHT22;7164;50.524;8.676;2022-08-11T16:37:58;29.50;47.10
14170;DHT22;7164;50.524;8.676;2022-08-11T16:40:44;29.40;47.00
14170;DHT22;7164;50.524;8.676;2022-08-11T16:43:15;29.40;47.50
14170;DHT22;7164;50.524;8.676;2022-08-11T16:46:02;29.40;47.50
14170;DHT22;7164;50.524;8.676;2022-08-11T16:48:55;29.40;47.40
14170;DHT22;7164;50.524;8.676;2022-08-11T16:51:23;29.40;47.70
14170;DHT22;7164;50.524;8.676;2022-08-11T16:53:49;29.40;47.20
14170;DHT22;7164;50.524;8.676;2022-08-11T16:56:18;29.40;47.30
14170;DHT22;7164;50.524;8.676;2022-08-11T16:58:49;29.30;47.10
14170;DHT22;7164;50.524;8.676;2022-08-11T17:01:35;29.30;47.60
14170;DHT22;7164;50.524;8.676;2022-08-11T17:04:07;29.30;47.40
14170;DHT22;7164;50.524;8.676;2022-08-11T17:06:52;29.20;47.20
14170;DHT22;7164;50.524;8.676;2022-08-11T17:09:37;29.20;47.50
14170;DHT22;7164;50.524;8.676;2022-08-11T17:12:24;29.20;47.60
14170;DHT22;7164;50.524;8.676;2022-08-11T17:15:13;29.20;47.20
14170;DHT22;7164;50.524;8.676;2022-08-11T17:17:59;29.20;47.50
14170;DHT22;7164;50.524;8.676;2022-08-11T17:20:28;29.20;47.50
14170;DHT22;7164;50.524;8.676;2022-08-11T17:22:54;29.10;47.40
14170;DHT22;7164;50.524;8.676;2022-08-11T17:25:40;29.10;47.50
14170;DHT22;7164;50.524;8.676;2022-08-11T17:28:06;29.00;47.50
14170;DHT22;7164;50.524;8.676;2022-08-11T17:30:33;29.00;48.00
14170;DHT22;7164;50.524;8.676;2022-08-11T17:33:18;28.90;47.80
14170;DHT22;7164;50.524;8.676;2022-08-11T17:36:03;28.90;48.10
14170;DHT22;7164;50.524;8.676;2022-08-11T17:38:30;28.80;48.30
14170;DHT22;7164;50.524;8.676;2022-08-11T17:40:59;28.80;48.40
14170;DHT22;7164;50.524;8.676;2022-08-11T17:43:46;28.70;48.70
14170;DHT22;7164;50.524;8.676;2022-08-11T17:46:31;28.60;48.60
14170;DHT22;7164;50.524;8.676;2022-08-11T17:49:17;28.60;49.00
14170;DHT22;7164;50.524;8.676;2022-08-11T17:51:47;28.60;48.80
14170;DHT22;7164;50.524;8.676;2022-08-11T17:54:35;28.60;49.00
14170;DHT22;7164;50.524;8.676;2022-08-11T17:57:21;28.50;49.20
14170;DHT22;7164;50.524;8.676;2022-08-11T18:00:06;28.50;49.40
14170;DHT22;7164;50.524;8.676;2022-08-11T18:02:43;28.40;49.40
14170;DHT22;7164;50.524;8.676;2022-08-11T18:05:34;28.30;49.30
14170;DHT22;7164;50.524;8.676;2022-08-11T18:08:07;28.30;49.60
14170;DHT22;7164;50.524;8.676;2022-08-11T18:10:52;28.20;49.90
14170;DHT22;7164;50.524;8.676;2022-08-11T18:13:39;28.20;50.00
14170;DHT22;7164;50.524;8.676;2022-08-11T18:16:24;28.10;49.90
14170;DHT22;7164;50.524;8.676;2022-08-11T18:19:10;28.10;50.30
14170;DHT22;7164;50.524;8.676;2022-08-11T18:22:00;28.00;50.30
14170;DHT22;7164;50.524;8.676;2022-08-11T18:24:52;27.90;50.40
14170;DHT22;7164;50.524;8.676;2022-08-11T18:27:41;27.80;50.30
14170;DHT22;7164;50.524;8.676;2022-08-11T18:30:27;27.80;50.60
14170;DHT22;7164;50.524;8.676;2022-08-11T18:33:13;27.70;51.10
14170;DHT22;7164;50.524;8.676;2022-08-11T18:35:59;27.60;50.70
14170;DHT22;7164;50.524;8.676;2022-08-11T18:38:46;27.50;50.90
14170;DHT22;7164;50.524;8.676;2022-08-11T18:41:32;27.40;51.00
14170;DHT22;7164;50.524;8.676;2022-08-11T18:44:19;27.30;51.40
14170;DHT22;7164;50.524;8.676;2022-08-11T18:47:10;27.20;51.60
14170;DHT22;7164;50.524;8.676;2022-08-11T18:49:58;27.10;51.70
14170;DHT22;7164;50.524;8.676;2022-08-11T18:52:44;27.10;51.70
14170;DHT22;7164;50.524;8.676;2022-08-11T18:55:54;26.90;51.90
14170;DHT22;7164;50.524;8.676;2022-08-11T18:58:42;26.80;52.00
14170;DHT22;7164;50.524;8.676;2022-08-11T19:01:28;26.70;52.30
14170;DHT22;7164;50.524;8.676;2022-08-11T19:04:14;26.60;52.60
14170;DHT22;7164;50.524;8.676;2022-08-11T19:06:59;26.50;52.70
14170;DHT22;7164;50.524;8.676;2022-08-11T19:09:45;26.40;52.70
14170;DHT22;7164;50.524;8.676;2022-08-11T19:12:42;26.30;52.80
14170;DHT22;7164;50.524;8.676;2022-08-11T19:15:28;26.20;53.10
14170;DHT22;7164;50.524;8.676;2022-08-11T19:18:20;26.10;53.20
14170;DHT22;7164;50.524;8.676;2022-08-11T19:21:07;26.00;53.40
14170;DHT22;7164;50.524;8.676;2022-08-11T19:23:53;25.90;53.30
14170;DHT22;7164;50.524;8.676;2022-08-11T19:26:39;25.80;53.40
14170;DHT22;7164;50.524;8.676;2022-08-11T19:29:25;25.80;53.30
14170;DHT22;7164;50.524;8.676;2022-08-11T19:32:12;25.70;53.70
14170;DHT22;7164;50.524;8.676;2022-08-11T19:34:57;25.70;53.70
14170;DHT22;7164;50.524;8.676;2022-08-11T19:37:44;25.60;53.80
14170;DHT22;7164;50.524;8.676;2022-08-11T19:40:29;25.60;53.80
14170;DHT22;7164;50.524;8.676;2022-08-11T19:43:15;25.60;53.60
14170;DHT22;7164;50.524;8.676;2022-08-11T19:46:01;25.60;53.80
14170;DHT22;7164;50.524;8.676;2022-08-11T19:48:50;25.50;53.70
14170;DHT22;7164;50.524;8.676;2022-08-11T19:51:36;25.50;53.70
14170;DHT22;7164;50.524;8.676;2022-08-11T19:54:26;25.40;53.80